Time;durP1;ratioP1;P1;durP2;ratioP2;P2;SDS_P1;SDS_P2;PMS_P1;PMS_P2;Temp;Humidity;BMP_temperature;BMP_pressure;BME280_temperature;BME280_humidity;BME280_pressure;Samples;Min_cycle;Max_cycle;Signal;HPM_P1;HPM_P2
2023/05/28 00:02:19;;;;;;;0.73;0.73;;;;;;;11.12;96.52;100982.34;4974057;28;20594;-75
2023/05/28 00:04:44;;;;;;;0.57;0.57;;;;;;;10.93;97.15;100970.69;4973837;28;20194;-75
2023/05/28 00:07:10;;;;;;;0.43;0.43;;;;;;;10.77;97.30;100974.78;4956124;28;20189;-75
2023/05/28 00:09:37;;;;;;;0.07;0.07;;;;;;;10.55;98.01;100967.22;4974600;28;20212;-78
2023/05/28 00:12:02;;;;;;;0.50;0.50;;;;;;;10.49;99.14;100969.25;4976067;28;20749;-78
2023/05/28 00:14:28;;;;;;;0.00;0.00;;;;;;;10.32;100.00;100966.25;4959625;28;20240;-78
2023/05/28 00:16:54;;;;;;;0.30;0.30;;;;;;;10.37;100.00;100963.41;4973513;28;20265;-74
2023/05/28 00:19:19;;;;;;;0.00;0.00;;;;;;;10.46;100.00;100967.09;4973572;28;20199;-75
2023/05/28 00:21:44;;;;;;;0.00;0.00;;;;;;;10.55;100.00;100965.31;4974248;28;20216;-75
2023/05/28 00:24:10;;;;;;;4.03;2.73;;;;;;;10.60;100.00;100962.50;4973553;28;20260;-75
2023/05/28 00:26:36;;;;;;;0.20;0.20;;;;;;;10.45;100.00;100968.22;4973780;28;20181;-75
2023/05/28 00:29:02;;;;;;;0.00;0.00;;;;;;;10.33;100.00;100968.66;4973226;28;20755;-74
2023/05/28 00:31:27;;;;;;;1.60;1.60;;;;;;;10.32;100.00;100963.50;4973454;28;20217;-75
2023/05/28 00:33:53;;;;;;;0.00;0.00;;;;;;;10.33;100.00;100962.41;4956069;28;20189;-75
2023/05/28 00:36:18;;;;;;;0.00;0.00;;;;;;;10.34;100.00;100958.56;4956270;28;20565;-75
2023/05/28 00:38:43;;;;;;;0.00;0.00;;;;;;;10.48;100.00;100950.41;4973195;28;20196;-75
2023/05/28 00:41:09;;;;;;;0.00;0.00;;;;;;;10.44;100.00;100955.66;4973369;28;20675;-74
2023/05/28 00:43:35;;;;;;;3.60;2.20;;;;;;;10.46;100.00;100966.28;4973396;28;20217;-73
2023/05/28 00:46:03;;;;;;;0.00;0.00;;;;;;;10.47;100.00;100957.00;4973323;28;20189;-74
2023/05/28 00:48:30;;;;;;;0.90;0.90;;;;;;;10.37;100.00;100968.88;4973034;28;20262;-78
2023/05/28 00:50:55;;;;;;;2.00;1.80;;;;;;;10.22;100.00;100956.28;4958121;28;20194;-77
2023/05/28 00:53:21;;;;;;;6.63;1.50;;;;;;;10.04;100.00;100960.59;4974991;28;20208;-76
2023/05/28 00:55:48;;;;;;;0.20;0.20;;;;;;;9.97;100.00;100962.88;4973777;28;20264;-73
2023/05/28 00:58:16;;;;;;;1.07;0.47;;;;;;;9.80;100.00;100959.84;4972554;28;20190;-74
2023/05/28 01:00:43;;;;;;;0.20;0.20;;;;;;;9.73;100.00;100957.50;4973154;28;20236;-75
2023/05/28 01:03:09;;;;;;;0.00;0.00;;;;;;;9.63;100.00;100959.53;4973310;28;20677;-76
2023/05/28 01:05:34;;;;;;;0.00;0.00;;;;;;;9.53;100.00;100950.34;4973174;28;20281;-76
2023/05/28 01:08:04;;;;;;;0.00;0.00;;;;;;;9.47;100.00;100942.53;4954981;28;20276;-75
2023/05/28 01:10:31;;;;;;;0.20;0.20;;;;;;;9.53;100.00;100947.63;4973044;28;20244;-76
2023/05/28 01:12:59;;;;;;;0.07;0.07;;;;;;;9.52;100.00;100940.56;4972936;28;20687;-76
2023/05/28 01:15:25;;;;;;;1.30;0.20;;;;;;;9.53;100.00;100946.81;4972947;28;20182;-75
2023/05/28 01:17:55;;;;;;;0.00;0.00;;;;;;;9.46;100.00;100933.53;4972406;28;20240;-76
2023/05/28 01:20:20;;;;;;;0.10;0.10;;;;;;;9.37;100.00;100927.09;4972617;28;20581;-75
2023/05/28 01:22:50;;;;;;;1.13;1.13;;;;;;;9.36;100.00;100944.56;4973791;28;20202;-76
2023/05/28 01:25:17;;;;;;;0.40;0.40;;;;;;;9.39;100.00;100938.53;4956110;28;20189;-74
2023/05/28 01:27:42;;;;;;;0.03;0.03;;;;;;;9.42;100.00;100929.78;4972247;28;20192;-73
2023/05/28 01:30:12;;;;;;;0.00;0.00;;;;;;;9.41;100.00;100933.63;4972517;28;20210;-75
2023/05/28 01:32:40;;;;;;;0.00;0.00;;;;;;;9.42;100.00;100928.97;4972326;28;20221;-76
2023/05/28 01:35:08;;;;;;;0.00;0.00;;;;;;;9.56;100.00;100929.06;4972412;28;20194;-76
2023/05/28 01:37:37;;;;;;;0.00;0.00;;;;;;;9.69;100.00;100925.59;4954691;28;20193;-76
2023/05/28 01:40:03;;;;;;;0.00;0.00;;;;;;;9.80;100.00;100929.81;4972484;28;20182;-74
2023/05/28 01:42:34;;;;;;;0.00;0.00;;;;;;;9.90;100.00;100924.22;4954912;28;20206;-75
2023/05/28 01:45:01;;;;;;;0.20;0.20;;;;;;;9.80;100.00;100922.44;4972366;28;20664;-75
2023/05/28 01:47:27;;;;;;;0.00;0.00;;;;;;;9.83;100.00;100929.22;4971680;28;20201;-76
2023/05/28 01:49:52;;;;;;;0.00;0.00;;;;;;;9.87;100.00;100919.38;4972263;28;20209;-76
2023/05/28 01:52:18;;;;;;;0.00;0.00;;;;;;;9.96;100.00;100931.22;4971900;28;20219;-76
2023/05/28 01:54:44;;;;;;;0.00;0.00;;;;;;;9.87;100.00;100922.09;4972333;28;20177;-76
2023/05/28 01:57:10;;;;;;;0.40;0.40;;;;;;;9.78;100.00;100921.13;4971727;28;20185;-74
2023/05/28 01:59:35;;;;;;;0.10;0.10;;;;;;;9.56;100.00;100915.44;4954960;28;20284;-75
2023/05/28 02:02:01;;;;;;;0.10;0.10;;;;;;;9.38;100.00;100923.28;4972870;28;20727;-75
2023/05/28 02:04:26;;;;;;;0.20;0.20;;;;;;;9.27;100.00;100910.88;4973959;28;20632;-78
2023/05/28 02:06:51;;;;;;;0.00;0.00;;;;;;;9.30;100.00;100904.03;4974101;28;20181;-73
2023/05/28 02:09:17;;;;;;;0.00;0.00;;;;;;;9.17;100.00;100897.38;4974668;28;20205;-78
2023/05/28 02:11:42;;;;;;;0.00;0.00;;;;;;;9.11;100.00;100898.50;4975166;28;20192;-78
2023/05/28 02:14:09;;;;;;;0.00;0.00;;;;;;;9.21;100.00;100907.38;4973773;28;20248;-76
2023/05/28 02:16:35;;;;;;;0.00;0.00;;;;;;;9.14;100.00;100908.88;4971908;28;20232;-74
2023/05/28 02:19:00;;;;;;;1.93;1.80;;;;;;;9.19;100.00;100906.06;4971650;28;20256;-75
2023/05/28 02:21:26;;;;;;;0.00;0.00;;;;;;;9.28;100.00;100908.97;4972226;28;20653;-73
2023/05/28 02:23:51;;;;;;;0.00;0.00;;;;;;;9.35;100.00;100918.41;4972327;28;20186;-74
2023/05/28 02:26:17;;;;;;;0.00;0.00;;;;;;;9.38;100.00;100912.38;4972007;28;20193;-73
2023/05/28 02:28:43;;;;;;;0.00;0.00;;;;;;;9.46;100.00;100913.66;4971681;28;20252;-75
2023/05/28 02:31:12;;;;;;;0.00;0.00;;;;;;;9.49;100.00;100910.31;4971839;28;20185;-74
2023/05/28 02:33:39;;;;;;;0.20;0.20;;;;;;;9.46;100.00;100913.66;4971728;28;20244;-75
2023/05/28 02:36:06;;;;;;;0.00;0.00;;;;;;;9.53;100.00;100909.44;4971795;28;20177;-75
2023/05/28 02:38:31;;;;;;;0.00;0.00;;;;;;;9.59;100.00;100907.47;4971485;28;20177;-74
2023/05/28 02:40:57;;;;;;;0.00;0.00;;;;;;;9.63;100.00;100911.22;4954320;28;20192;-75
2023/05/28 02:43:22;;;;;;;0.10;0.10;;;;;;;9.63;100.00;100913.97;4954422;28;20243;-74
2023/05/28 02:45:47;;;;;;;0.00;0.00;;;;;;;9.50;100.00;100915.50;4971799;28;20224;-75
2023/05/28 02:48:12;;;;;;;0.10;0.10;;;;;;;9.31;100.00;100914.66;4971197;28;20620;-76
2023/05/28 02:50:38;;;;;;;0.00;0.00;;;;;;;9.17;100.00;100911.00;4971635;28;20189;-75
2023/05/28 02:53:04;;;;;;;0.00;0.00;;;;;;;9.09;100.00;100912.44;4971668;28;20677;-75
2023/05/28 02:55:30;;;;;;;0.00;0.00;;;;;;;9.11;100.00;100915.72;4973656;28;20189;-74
2023/05/28 02:57:55;;;;;;;0.00;0.00;;;;;;;9.17;100.00;100927.34;4971349;28;20185;-75
2023/05/28 03:00:21;;;;;;;0.00;0.00;;;;;;;9.15;100.00;100922.19;4951507;28;20182;-73
2023/05/28 03:02:46;;;;;;;0.00;0.00;;;;;;;9.19;100.00;100931.41;4971421;28;20260;-75
2023/05/28 03:05:12;;;;;;;0.00;0.00;;;;;;;9.13;100.00;100932.59;4971530;28;20186;-76
2023/05/28 03:07:37;;;;;;;0.00;0.00;;;;;;;9.06;100.00;100932.09;4971469;28;20178;-76
2023/05/28 03:10:04;;;;;;;0.00;0.00;;;;;;;9.07;100.00;100938.34;4954107;28;20241;-74
2023/05/28 03:12:29;;;;;;;0.00;0.00;;;;;;;9.11;100.00;100934.78;4971277;28;20206;-75
2023/05/28 03:14:55;;;;;;;0.00;0.00;;;;;;;8.98;100.00;100940.94;4955111;28;20186;-74
2023/05/28 03:17:20;;;;;;;0.00;0.00;;;;;;;8.87;100.00;100933.94;4974628;28;20640;-75
2023/05/28 03:19:45;;;;;;;0.00;0.00;;;;;;;8.86;100.00;100937.78;4957707;28;20620;-75
2023/05/28 03:22:10;;;;;;;0.00;0.00;;;;;;;8.88;100.00;100950.00;4957508;28;20209;-76
2023/05/28 03:24:38;;;;;;;0.00;0.00;;;;;;;8.95;100.00;100947.75;4975152;28;20297;-75
2023/05/28 03:27:05;;;;;;;0.00;0.00;;;;;;;9.00;100.00;100946.91;4974904;28;20588;-75
2023/05/28 03:29:30;;;;;;;0.00;0.00;;;;;;;8.89;100.00;100942.63;4974833;28;20232;-75
2023/05/28 03:31:56;;;;;;;0.10;0.10;;;;;;;8.67;100.00;100929.47;4957427;28;20221;-78
2023/05/28 03:34:21;;;;;;;0.00;0.00;;;;;;;8.61;100.00;100925.19;4977857;28;20186;-77
2023/05/28 03:36:46;;;;;;;0.60;0.60;;;;;;;8.68;100.00;100930.28;4978382;28;20313;-77
2023/05/28 03:39:11;;;;;;;0.00;0.00;;;;;;;8.74;100.00;100932.69;4977536;28;20235;-76
2023/05/28 03:41:37;;;;;;;0.00;0.00;;;;;;;8.84;100.00;100932.63;4976309;28;20188;-75
2023/05/28 03:44:03;;;;;;;0.00;0.00;;;;;;;8.95;100.00;100936.84;4974600;28;20598;-75
2023/05/28 03:46:28;;;;;;;0.00;0.00;;;;;;;8.98;100.00;100940.13;4974391;28;20191;-75
2023/05/28 03:48:54;;;;;;;0.53;0.53;;;;;;;9.03;100.00;100929.16;4974176;28;20300;-74
2023/05/28 03:51:19;;;;;;;0.00;0.00;;;;;;;9.02;100.00;100936.50;4974404;28;20185;-76
2023/05/28 03:53:45;;;;;;;0.00;0.00;;;;;;;9.08;100.00;100935.34;4974429;28;20636;-76
2023/05/28 03:56:10;;;;;;;0.00;0.00;;;;;;;8.89;100.00;100926.28;4974826;28;20663;-75
2023/05/28 03:58:36;;;;;;;0.00;0.00;;;;;;;8.84;100.00;100929.06;4974011;28;20699;-76
2023/05/28 04:01:01;;;;;;;0.00;0.00;;;;;;;9.10;100.00;100926.88;4974112;28;20185;-75
2023/05/28 04:03:26;;;;;;;0.00;0.00;;;;;;;9.30;100.00;100926.66;4974209;28;20280;-73
2023/05/28 04:05:52;;;;;;;0.00;0.00;;;;;;;9.44;100.00;100922.13;4974300;28;20209;-76
2023/05/28 04:08:17;;;;;;;0.00;0.00;;;;;;;9.19;100.00;100916.97;4956344;28;20182;-76
2023/05/28 04:10:43;;;;;;;0.00;0.00;;;;;;;9.27;100.00;100921.78;4974094;28;20544;-75
2023/05/28 04:13:08;;;;;;;0.00;0.00;;;;;;;9.34;100.00;100916.78;4973962;28;20742;-77
2023/05/28 04:15:33;;;;;;;0.00;0.00;;;;;;;9.16;100.00;100915.63;4973921;28;20190;-76
2023/05/28 04:17:59;;;;;;;0.00;0.00;;;;;;;9.17;100.00;100909.09;4973680;28;20236;-76
2023/05/28 04:20:24;;;;;;;0.00;0.00;;;;;;;9.35;100.00;100920.31;4973865;28;20558;-75
2023/05/28 04:22:49;;;;;;;0.40;0.40;;;;;;;9.74;100.00;100923.63;4973689;28;20205;-74
2023/05/28 04:25:15;;;;;;;0.00;0.00;;;;;;;9.78;100.00;100926.59;4973945;28;20236;-76
2023/05/28 04:27:40;;;;;;;0.50;0.50;;;;;;;9.78;100.00;100926.59;4973792;28;20198;-78
2023/05/28 04:30:08;;;;;;;0.00;0.00;;;;;;;9.71;100.00;100929.69;4976534;28;20202;-77
2023/05/28 04:32:33;;;;;;;0.00;0.00;;;;;;;9.75;100.00;100938.09;4974032;28;20213;-76
2023/05/28 04:35:03;;;;;;;0.00;0.00;;;;;;;9.82;100.00;100944.78;4974152;28;20265;-76
2023/05/28 04:37:28;;;;;;;0.97;0.97;;;;;;;9.97;100.00;100949.22;4973282;28;20177;-76
2023/05/28 04:39:53;;;;;;;0.23;0.23;;;;;;;10.06;100.00;100943.94;4956462;28;20649;-76
2023/05/28 04:42:19;;;;;;;0.00;0.00;;;;;;;10.14;100.00;100948.72;4956156;28;20268;-76
2023/05/28 04:44:44;;;;;;;0.00;0.00;;;;;;;10.22;100.00;100942.63;4973345;28;20189;-75
2023/05/28 04:47:11;;;;;;;0.00;0.00;;;;;;;10.31;100.00;100945.50;4972994;28;20553;-76
2023/05/28 04:49:37;;;;;;;0.00;0.00;;;;;;;10.24;100.00;100940.41;4956205;28;20232;-76
2023/05/28 04:52:02;;;;;;;0.00;0.00;;;;;;;10.24;100.00;100945.03;4973248;28;20687;-76
2023/05/28 04:54:27;;;;;;;0.00;0.00;;;;;;;10.31;100.00;100948.22;4973503;28;20196;-76
2023/05/28 04:56:53;;;;;;;0.00;0.00;;;;;;;10.43;100.00;100949.41;4973236;28;20189;-76
2023/05/28 04:59:18;;;;;;;0.00;0.00;;;;;;;10.54;100.00;100939.09;4972698;28;20188;-76
2023/05/28 05:01:43;;;;;;;0.00;0.00;;;;;;;10.66;100.00;100953.09;4973661;28;20185;-76
2023/05/28 05:04:09;;;;;;;0.00;0.00;;;;;;;10.70;100.00;100942.38;4973001;28;20186;-74
2023/05/28 05:06:34;;;;;;;0.00;0.00;;;;;;;10.76;100.00;100941.19;4973082;28;20194;-76
2023/05/28 05:08:59;;;;;;;0.00;0.00;;;;;;;10.76;100.00;100948.56;4972509;28;20204;-76
2023/05/28 05:11:26;;;;;;;0.00;0.00;;;;;;;10.77;100.00;100942.00;4972903;28;20178;-75
2023/05/28 05:13:51;;;;;;;0.10;0.10;;;;;;;10.88;100.00;100946.19;4955561;28;20683;-76
2023/05/28 05:16:17;;;;;;;0.67;0.40;;;;;;;11.01;100.00;100959.06;4972846;28;20213;-76
2023/05/28 05:18:43;;;;;;;0.00;0.00;;;;;;;11.16;100.00;100949.75;4972521;28;20559;-76
2023/05/28 05:21:10;;;;;;;0.00;0.00;;;;;;;11.18;100.00;100951.06;4955346;28;20181;-76
2023/05/28 05:23:35;;;;;;;0.00;0.00;;;;;;;11.31;100.00;100944.81;4955461;28;20684;-76
2023/05/28 05:26:01;;;;;;;0.00;0.00;;;;;;;11.45;100.00;100938.53;4972701;28;20192;-76
2023/05/28 05:28:26;;;;;;;0.00;0.00;;;;;;;11.58;100.00;100935.78;4972109;28;20182;-74
2023/05/28 05:30:51;;;;;;;0.00;0.00;;;;;;;11.67;100.00;100935.03;4972618;28;20177;-76
2023/05/28 05:33:17;;;;;;;0.00;0.00;;;;;;;11.81;100.00;100933.13;4972361;28;20591;-76
2023/05/28 05:35:42;;;;;;;0.00;0.00;;;;;;;11.83;100.00;100936.34;4972679;28;20558;-76
2023/05/28 05:38:07;;;;;;;0.00;0.00;;;;;;;11.84;100.00;100943.44;4971341;28;20181;-76
2023/05/28 05:40:32;;;;;;;0.00;0.00;;;;;;;11.89;100.00;100937.88;4972391;28;20193;-75
2023/05/28 05:42:58;;;;;;;0.00;0.00;;;;;;;12.01;100.00;100945.56;4972269;28;20206;-76
2023/05/28 05:45:23;;;;;;;0.00;0.00;;;;;;;12.12;100.00;100953.22;4972499;28;20614;-75
2023/05/28 05:47:48;;;;;;;0.00;0.00;;;;;;;12.24;100.00;100951.88;4971976;28;20184;-76
2023/05/28 05:50:14;;;;;;;0.00;0.00;;;;;;;12.28;100.00;100950.13;4972346;28;20197;-75
2023/05/28 05:52:40;;;;;;;0.00;0.00;;;;;;;12.27;100.00;100952.06;4972323;28;20795;-75
2023/05/28 05:55:06;;;;;;;0.00;0.00;;;;;;;12.31;100.00;100958.56;4972756;28;20177;-76
2023/05/28 05:57:32;;;;;;;0.00;0.00;;;;;;;12.25;100.00;100951.56;4971758;28;20178;-75
2023/05/28 05:59:57;;;;;;;0.00;0.00;;;;;;;12.33;100.00;100959.03;4972957;28;20544;-75
2023/05/28 06:02:22;;;;;;;0.00;0.00;;;;;;;12.36;100.00;100952.13;4955319;28;20201;-83
2023/05/28 06:04:48;;;;;;;0.17;0.17;;;;;;;12.38;100.00;100950.69;4955198;28;20628;-76
2023/05/28 06:07:13;;;;;;;0.00;0.00;;;;;;;12.41;100.00;100957.47;4971666;28;20573;-75
2023/05/28 06:09:39;;;;;;;0.60;0.60;;;;;;;12.39;100.00;100960.53;4972355;28;20209;-75
2023/05/28 06:12:04;;;;;;;0.00;0.00;;;;;;;12.38;100.00;100956.19;4954308;28;20214;-75
2023/05/28 06:14:29;;;;;;;0.20;0.17;;;;;;;12.42;100.00;100961.84;4972235;28;20727;-75
2023/05/28 06:16:55;;;;;;;0.10;0.10;;;;;;;12.44;99.56;100962.34;4972104;28;20200;-74
2023/05/28 06:19:21;;;;;;;0.13;0.13;;;;;;;12.50;100.00;100967.41;4954370;28;20248;-74
2023/05/28 06:21:46;;;;;;;0.23;0.23;;;;;;;12.55;99.97;100954.69;4971639;28;20286;-77
2023/05/28 06:24:12;;;;;;;0.70;0.70;;;;;;;12.57;100.00;100966.94;4953204;28;20213;-78
2023/05/28 06:26:37;;;;;;;0.00;0.00;;;;;;;12.60;99.13;100966.34;4972565;28;20653;-77
2023/05/28 06:29:02;;;;;;;0.00;0.00;;;;;;;12.71;99.08;100967.69;4972744;28;20210;-78
2023/05/28 06:31:27;;;;;;;0.00;0.00;;;;;;;12.77;99.24;100954.69;4972725;28;20667;-76
2023/05/28 06:33:53;;;;;;;0.00;0.00;;;;;;;12.79;98.34;100957.91;4972859;28;20187;-76
2023/05/28 06:36:18;;;;;;;0.00;0.00;;;;;;;12.85;97.47;100962.13;4955009;28;20669;-78
2023/05/28 06:38:45;;;;;;;0.00;0.00;;;;;;;13.00;96.78;100956.25;4972284;28;20550;-77
2023/05/28 06:41:10;;;;;;;0.00;0.00;;;;;;;13.10;96.46;100950.50;4964771;28;20178;-78
2023/05/28 06:43:37;;;;;;;0.00;0.00;;;;;;;13.26;96.45;100956.41;4955296;28;20221;-77
2023/05/28 06:46:02;;;;;;;0.00;0.00;;;;;;;13.49;95.03;100959.88;4973021;28;20214;-78
2023/05/28 06:48:28;;;;;;;0.00;0.00;;;;;;;13.75;92.90;100956.41;4969441;28;20629;-78
2023/05/28 06:50:54;;;;;;;0.50;0.50;;;;;;;13.90;88.11;100947.72;4971585;28;20190;-76
2023/05/28 06:53:20;;;;;;;0.00;0.00;;;;;;;14.00;86.87;100941.88;4977058;28;20632;-78
2023/05/28 06:55:45;;;;;;;0.00;0.00;;;;;;;14.15;85.51;100940.59;4977309;28;20660;-78
2023/05/28 06:58:10;;;;;;;0.00;0.00;;;;;;;14.32;83.99;100935.13;4976662;28;20222;-78
2023/05/28 07:00:36;;;;;;;0.00;0.00;;;;;;;14.40;81.73;100927.97;4976882;28;20182;-78
2023/05/28 07:03:01;;;;;;;0.00;0.00;;;;;;;14.50;82.08;100938.69;4959304;28;20563;-78
2023/05/28 07:05:26;;;;;;;0.20;0.20;;;;;;;14.66;82.29;100938.97;4977013;28;20185;-77
2023/05/28 07:07:52;;;;;;;0.07;0.07;;;;;;;14.78;82.49;100952.88;4976120;28;20182;-78
2023/05/28 07:10:17;;;;;;;0.00;0.00;;;;;;;14.88;82.02;100947.00;4950602;28;20210;-78
2023/05/28 07:12:42;;;;;;;0.00;0.00;;;;;;;14.99;82.50;100948.25;4955915;28;20211;-76
2023/05/28 07:15:08;;;;;;;0.00;0.00;;;;;;;15.02;81.92;100947.59;4957597;28;20658;-78
2023/05/28 07:17:34;;;;;;;0.07;0.07;;;;;;;15.09;81.50;100955.38;4976001;28;20186;-78
2023/05/28 07:19:59;;;;;;;0.83;0.83;;;;;;;15.28;78.96;100947.50;4975675;28;20213;-76
2023/05/28 07:22:25;;;;;;;2.43;0.73;;;;;;;15.43;76.70;100935.13;4958806;28;20237;-78
2023/05/28 07:24:50;;;;;;;0.80;0.80;;;;;;;15.55;78.05;100949.00;4976327;28;20182;-78
2023/05/28 07:27:15;;;;;;;0.00;0.00;;;;;;;15.53;76.99;100943.03;4976317;28;20190;-78
2023/05/28 07:29:41;;;;;;;0.00;0.00;;;;;;;15.64;76.50;100940.72;4975994;28;20218;-78
2023/05/28 07:32:06;;;;;;;0.00;0.00;;;;;;;15.84;76.30;100939.94;4976191;28;20252;-78
2023/05/28 07:34:32;;;;;;;0.00;0.00;;;;;;;15.83;74.76;100930.06;4976543;28;20236;-77
2023/05/28 07:36:57;;;;;;;0.00;0.00;;;;;;;15.90;73.98;100941.34;4976402;28;20204;-78
2023/05/28 07:39:22;;;;;;;0.00;0.00;;;;;;;16.15;74.96;100942.31;4974856;28;20260;-76
2023/05/28 07:41:48;;;;;;;0.00;0.00;;;;;;;16.20;72.60;100933.00;4958026;28;20297;-75
2023/05/28 07:44:15;;;;;;;0.60;0.60;;;;;;;16.45;72.00;100926.47;4972806;28;20266;-76
2023/05/28 07:46:40;;;;;;;0.40;0.40;;;;;;;16.38;70.89;100922.66;4966935;28;20659;-76
2023/05/28 07:49:06;;;;;;;0.00;0.00;;;;;;;16.54;71.60;100926.41;4951013;28;20194;-76
2023/05/28 07:51:32;;;;;;;0.00;0.00;;;;;;;16.60;69.73;100920.31;4968252;28;20182;-76
2023/05/28 07:53:58;;;;;;;1.23;1.13;;;;;;;16.55;70.64;100914.22;4950651;28;20190;-77
2023/05/28 07:56:23;;;;;;;0.00;0.00;;;;;;;16.59;70.37;100915.94;4948662;28;20645;-76
2023/05/28 07:58:48;;;;;;;0.00;0.00;;;;;;;16.81;72.21;100930.53;4974822;28;20182;-77
2023/05/28 08:01:13;;;;;;;0.00;0.00;;;;;;;16.93;72.31;100933.31;4973951;28;20186;-77
2023/05/28 08:03:39;;;;;;;0.10;0.10;;;;;;;16.98;71.06;100919.28;4956777;28;20209;-75
2023/05/28 08:06:06;;;;;;;0.00;0.00;;;;;;;17.10;71.06;100922.06;4977753;28;20679;-81
2023/05/28 08:08:31;;;;;;;0.50;0.40;;;;;;;17.23;68.21;100909.09;4975556;28;20182;-75
2023/05/28 08:10:56;;;;;;;0.30;0.30;;;;;;;17.23;66.23;100898.84;4977539;28;20232;-82
2023/05/28 08:13:22;;;;;;;0.30;0.30;;;;;;;17.27;65.86;100892.63;4976494;28;20672;-80
2023/05/28 08:15:47;;;;;;;1.30;1.20;;;;;;;17.47;66.94;100902.72;4957524;28;20680;-75
2023/05/28 08:18:13;;;;;;;0.57;0.57;;;;;;;17.48;66.04;100899.63;4974029;28;20181;-77
2023/05/28 08:20:38;;;;;;;0.00;0.00;;;;;;;17.44;66.07;100889.63;4974525;28;20629;-77
2023/05/28 08:23:04;;;;;;;0.00;0.00;;;;;;;17.55;66.58;100893.53;4957052;28;20248;-76
2023/05/28 08:25:29;;;;;;;0.00;0.00;;;;;;;17.74;64.42;100877.16;4974604;28;20319;-78
2023/05/28 08:27:55;;;;;;;0.00;0.00;;;;;;;17.86;63.48;100879.09;4957938;28;20190;-82
2023/05/28 08:30:20;;;;;;;0.10;0.07;;;;;;;17.89;62.97;100883.91;4958301;28;20213;-77
2023/05/28 08:32:47;;;;;;;0.13;0.13;;;;;;;18.00;61.03;100876.75;4967799;28;20240;-75
2023/05/28 08:35:12;;;;;;;6.70;0.83;;;;;;;17.96;60.16;100870.31;4955340;28;20232;-76
2023/05/28 08:37:38;;;;;;;0.00;0.00;;;;;;;17.93;61.13;100875.72;4973757;28;20216;-76
2023/05/28 08:40:08;;;;;;;0.30;0.30;;;;;;;18.08;61.38;100877.75;4971010;28;20718;-76
2023/05/28 08:42:33;;;;;;;0.77;0.77;;;;;;;18.36;62.40;100889.59;4970691;28;20209;-76
2023/05/28 08:44:58;;;;;;;0.30;0.30;;;;;;;18.47;61.70;100876.06;4969620;28;20194;-76
2023/05/28 08:47:26;;;;;;;0.67;0.67;;;;;;;18.41;60.14;100866.44;4953688;28;20556;-76
2023/05/28 08:49:55;;;;;;;0.00;0.00;;;;;;;18.46;60.75;100873.66;4973768;28;20206;-76
2023/05/28 08:52:22;;;;;;;5.47;0.97;;;;;;;18.57;60.47;100874.75;4973613;28;20863;-77
2023/05/28 08:54:48;;;;;;;0.07;0.07;;;;;;;18.48;55.70;100847.25;4972817;28;20186;-76
2023/05/28 08:57:14;;;;;;;0.57;0.30;;;;;;;18.53;55.82;100847.00;4973118;28;20186;-75
2023/05/28 08:59:40;;;;;;;0.00;0.00;;;;;;;18.84;58.91;100873.94;4973397;28;20185;-75
2023/05/28 09:02:06;;;;;;;0.07;0.07;;;;;;;18.87;56.52;100850.25;4973082;28;20209;-76
2023/05/28 09:04:31;;;;;;;0.00;0.00;;;;;;;19.00;56.82;100860.06;4973722;28;20182;-75
2023/05/28 09:06:56;;;;;;;0.00;0.00;;;;;;;19.21;57.06;100862.53;4973519;28;20590;-76
2023/05/28 09:09:23;;;;;;;0.00;0.00;;;;;;;19.33;54.95;100835.53;4955688;28;20288;-75
2023/05/28 09:11:48;;;;;;;0.00;0.00;;;;;;;19.44;54.67;100837.75;4973490;28;20202;-76
2023/05/28 09:14:17;;;;;;;0.87;0.30;;;;;;;19.49;54.38;100838.28;4973483;28;20235;-75
2023/05/28 09:16:44;;;;;;;0.30;0.30;;;;;;;19.59;54.79;100845.25;4973616;28;20545;-76
2023/05/28 09:19:10;;;;;;;0.20;0.20;;;;;;;19.72;50.89;100816.22;4973008;28;20178;-76
2023/05/28 09:21:36;;;;;;;0.77;0.67;;;;;;;19.77;51.55;100818.69;4973186;28;20197;-76
2023/05/28 09:24:03;;;;;;;0.20;0.20;;;;;;;19.53;49.21;100802.34;4955583;28;20185;-77
2023/05/28 09:26:30;;;;;;;0.00;0.00;;;;;;;19.71;50.10;100824.91;4970072;28;20210;-75
2023/05/28 09:28:56;;;;;;;0.00;0.00;;;;;;;19.61;51.90;100820.75;4972941;28;20209;-77
2023/05/28 09:31:27;;;;;;;0.20;0.20;;;;;;;19.82;51.90;100831.50;4973136;28;20177;-76
2023/05/28 09:33:52;;;;;;;0.00;0.00;;;;;;;19.69;49.50;100816.16;4973295;28;20186;-75
2023/05/28 09:36:18;;;;;;;0.87;0.50;;;;;;;19.84;52.64;100835.50;4973093;28;20187;-76
2023/05/28 09:38:44;;;;;;;1.50;1.40;;;;;;;19.73;50.08;100817.84;4973070;28;20190;-77
2023/05/28 09:41:20;;;;;;;0.30;0.23;;;;;;;19.60;48.27;100805.28;4956222;28;20185;-76
2023/05/28 09:43:46;;;;;;;1.50;1.47;;;;;;;19.53;47.76;100800.38;4944753;29;20214;-76
2023/05/28 09:46:12;;;;;;;0.00;0.00;;;;;;;19.70;48.59;100815.78;4971736;28;20189;-77
2023/05/28 09:48:37;;;;;;;0.97;0.43;;;;;;;19.87;48.97;100806.25;4972845;28;20652;-76
2023/05/28 09:51:07;;;;;;;0.83;0.83;;;;;;;19.77;47.56;100799.28;4973170;28;20236;-77
2023/05/28 09:53:36;;;;;;;1.40;0.90;;;;;;;20.06;47.72;100809.00;4973217;28;20202;-76
2023/05/28 09:56:02;;;;;;;0.00;0.00;;;;;;;20.02;48.46;100813.66;4973502;28;20533;-77
2023/05/28 09:58:31;;;;;;;0.00;0.00;;;;;;;20.15;48.46;100812.34;4972866;28;20182;-75
2023/05/28 10:01:00;;;;;;;0.30;0.30;;;;;;;20.24;47.26;100795.44;4973813;28;20188;-75
2023/05/28 10:03:36;;;;;;;6.40;0.43;;;;;;;20.06;47.00;100797.09;4972861;28;20265;-75
2023/05/28 10:06:10;;;;;;;0.90;0.53;;;;;;;20.12;46.26;100785.34;4970610;28;20208;-77
2023/05/28 10:08:37;;;;;;;4.30;0.30;;;;;;;20.29;47.96;100799.91;4972709;28;20182;-77
2023/05/28 10:11:08;;;;;;;0.30;0.30;;;;;;;20.31;46.46;100787.25;4972655;28;20183;-76
2023/05/28 10:13:34;;;;;;;0.83;0.73;;;;;;;20.50;44.81;100775.31;4972698;28;20283;-77
2023/05/28 10:16:00;;;;;;;0.37;0.37;;;;;;;20.70;44.91;100774.09;4950362;28;20558;-76
2023/05/28 10:18:26;;;;;;;1.07;0.97;;;;;;;20.85;43.98;100768.78;4972133;28;20197;-77
2023/05/28 10:20:51;;;;;;;0.00;0.00;;;;;;;20.66;44.85;100781.53;4964606;28;20193;-75
2023/05/28 10:23:19;;;;;;;0.60;0.60;;;;;;;20.34;45.12;100785.72;4972144;28;20210;-75
2023/05/28 10:25:45;;;;;;;8.47;0.40;;;;;;;20.29;45.22;100784.06;4969228;28;20213;-76
2023/05/28 10:28:14;;;;;;;0.00;0.00;;;;;;;20.45;45.26;100789.53;4971978;28;20663;-77
2023/05/28 10:30:40;;;;;;;0.00;0.00;;;;;;;20.79;48.02;100815.47;4972119;28;20584;-76
2023/05/28 10:33:07;;;;;;;0.93;0.50;;;;;;;20.50;45.90;100790.00;4972329;28;20254;-76
2023/05/28 10:35:35;;;;;;;0.50;0.47;;;;;;;20.67;45.22;100785.94;4972191;28;20220;-76
2023/05/28 10:38:08;;;;;;;0.00;0.00;;;;;;;20.91;44.88;100781.16;4971584;28;20269;-75
2023/05/28 10:40:34;;;;;;;0.00;0.00;;;;;;;21.05;44.73;100782.19;4972310;28;20549;-75
2023/05/28 10:43:00;;;;;;;2.10;0.87;;;;;;;21.12;43.75;100778.72;4951218;28;20302;-77
2023/05/28 10:45:39;;;;;;;0.00;0.00;;;;;;;20.93;42.93;100770.47;4964287;28;20219;-76
2023/05/28 10:48:05;;;;;;;0.00;0.00;;;;;;;21.12;42.81;100775.09;4971946;28;20186;-79
2023/05/28 10:50:31;;;;;;;2.00;1.67;;;;;;;21.25;41.92;100770.97;4969871;28;20199;-83
2023/05/28 10:53:04;;;;;;;0.00;0.00;;;;;;;21.41;41.81;100765.22;4969616;28;20207;-76
2023/05/28 10:55:49;;;;;;;0.10;0.10;;;;;;;21.43;42.28;100782.34;4973457;28;20186;-76
2023/05/28 10:58:35;;;;;;;0.00;0.00;;;;;;;21.29;41.58;100774.63;4972473;28;20212;-77
2023/05/28 11:01:03;;;;;;;0.30;0.30;;;;;;;21.37;41.62;100765.97;4972337;28;20295;-77
2023/05/28 11:03:45;;;;;;;0.57;0.57;;;;;;;21.53;42.57;100781.66;4972480;28;20199;-78
2023/05/28 11:06:12;;;;;;;0.03;0.03;;;;;;;21.61;42.79;100786.16;4972522;28;20187;-77
2023/05/28 11:08:40;;;;;;;0.20;0.20;;;;;;;21.91;42.41;100786.91;4954852;28;20190;-78
2023/05/28 11:11:06;;;;;;;0.00;0.00;;;;;;;21.37;41.51;100771.53;4955050;28;20215;-77
2023/05/28 11:13:32;;;;;;;0.73;0.70;;;;;;;21.59;42.10;100782.94;4954863;28;20212;-77
2023/05/28 11:16:06;;;;;;;0.63;0.63;;;;;;;21.26;40.65;100767.81;4972534;28;20267;-78
2023/05/28 11:18:32;;;;;;;0.77;0.60;;;;;;;21.80;42.16;100782.41;4954873;28;20246;-78
2023/05/28 11:21:08;;;;;;;0.57;0.57;;;;;;;21.45;40.43;100772.44;4972698;28;20188;-78